sensor_id;sensor_type;location;lat;lon;timestamp;pressure;altitude;pressure_sealevel;temperature;humidity
85768;BME280;76705;49.006;12.078;2024-03-25T00:00:03;96594.84;;;18.73;48.85
85768;BME280;76705;49.006;12.078;2024-03-25T00:02:49;96584.44;;;18.71;47.74
85768;BME280;76705;49.006;12.078;2024-03-25T00:05:27;96588.97;;;18.71;48.91
85768;BME280;76705;49.006;12.078;2024-03-25T00:08:05;96591.09;;;18.69;47.92
85768;BME280;76705;49.006;12.078;2024-03-25T00:10:45;96597.78;;;18.71;48.04
85768;BME280;76705;49.006;12.078;2024-03-25T00:13:23;96595.13;;;18.71;48.18
85768;BME280;76705;49.006;12.078;2024-03-25T00:16:01;96592.69;;;18.70;47.95
85768;BME280;76705;49.006;12.078;2024-03-25T00:18:40;96594.56;;;18.69;48.33
85768;BME280;76705;49.006;12.078;2024-03-25T00:21:17;96588.16;;;18.70;48.33
85768;BME280;76705;49.006;12.078;2024-03-25T00:23:55;96590.00;;;18.70;48.57
85768;BME280;76705;49.006;12.078;2024-03-25T00:26:38;96590.28;;;18.68;48.84
85768;BME280;76705;49.006;12.078;2024-03-25T00:29:16;96601.78;;;18.69;47.98
85768;BME280;76705;49.006;12.078;2024-03-25T00:31:55;96595.34;;;18.70;48.67
85768;BME280;76705;49.006;12.078;2024-03-25T00:34:33;96594.81;;;18.68;48.58
85768;BME280;76705;49.006;12.078;2024-03-25T00:37:12;96596.66;;;18.67;48.61
85768;BME280;76705;49.006;12.078;2024-03-25T00:39:50;96591.91;;;18.69;47.94
85768;BME280;76705;49.006;12.078;2024-03-25T00:42:29;96594.00;;;18.67;47.72
85768;BME280;76705;49.006;12.078;2024-03-25T00:45:08;96589.22;;;18.69;48.53
85768;BME280;76705;49.006;12.078;2024-03-25T00:47:46;96589.72;;;18.66;47.94
85768;BME280;76705;49.006;12.078;2024-03-25T00:50:24;96592.41;;;18.66;48.10
85768;BME280;76705;49.006;12.078;2024-03-25T00:53:03;96577.66;;;18.64;48.17
85768;BME280;76705;49.006;12.078;2024-03-25T00:55:41;96587.84;;;18.67;48.38
85768;BME280;76705;49.006;12.078;2024-03-25T00:58:21;96587.06;;;18.66;48.48
85768;BME280;76705;49.006;12.078;2024-03-25T01:00:59;96588.09;;;18.65;48.02
85768;BME280;76705;49.006;12.078;2024-03-25T01:03:37;96594.00;;;18.67;47.63
85768;BME280;76705;49.006;12.078;2024-03-25T01:06:15;96586.25;;;18.66;48.15
85768;BME280;76705;49.006;12.078;2024-03-25T01:08:53;96581.16;;;18.64;47.94
85768;BME280;76705;49.006;12.078;2024-03-25T01:11:31;96594.50;;;18.64;47.66
85768;BME280;76705;49.006;12.078;2024-03-25T01:14:10;96589.97;;;18.65;47.77
85768;BME280;76705;49.006;12.078;2024-03-25T01:16:49;96588.34;;;18.64;48.14
85768;BME280;76705;49.006;12.078;2024-03-25T01:19:27;96604.38;;;18.64;47.75
85768;BME280;76705;49.006;12.078;2024-03-25T01:22:05;96595.59;;;18.63;48.71
85768;BME280;76705;49.006;12.078;2024-03-25T01:24:43;96595.31;;;18.65;47.72
85768;BME280;76705;49.006;12.078;2024-03-25T01:27:21;96599.31;;;18.62;47.95
85768;BME280;76705;49.006;12.078;2024-03-25T01:30:00;96581.41;;;18.63;48.36
85768;BME280;76705;49.006;12.078;2024-03-25T01:32:41;96582.22;;;18.63;48.45
85768;BME280;76705;49.006;12.078;2024-03-25T01:35:19;96584.09;;;18.63;48.27
85768;BME280;76705;49.006;12.078;2024-03-25T01:37:57;96586.75;;;18.63;47.95
85768;BME280;76705;49.006;12.078;2024-03-25T01:40:35;96578.97;;;18.61;47.55
85768;BME280;76705;49.006;12.078;2024-03-25T01:43:13;96582.47;;;18.62;48.26
85768;BME280;76705;49.006;12.078;2024-03-25T01:45:53;96581.16;;;18.64;47.78
85768;BME280;76705;49.006;12.078;2024-03-25T01:48:31;96590.47;;;18.62;47.50
85768;BME280;76705;49.006;12.078;2024-03-25T01:51:11;96591.28;;;18.62;47.70
85768;BME280;76705;49.006;12.078;2024-03-25T01:53:49;96593.41;;;18.60;48.06
85768;BME280;76705;49.006;12.078;2024-03-25T01:56:27;96583.50;;;18.61;47.65
85768;BME280;76705;49.006;12.078;2024-03-25T01:59:09;96578.97;;;18.61;48.20
85768;BME280;76705;49.006;12.078;2024-03-25T02:01:49;96585.13;;;18.62;47.64
85768;BME280;76705;49.006;12.078;2024-03-25T02:04:28;96579.78;;;18.62;47.88
85768;BME280;76705;49.006;12.078;2024-03-25T02:07:07;96577.13;;;18.62;47.80
85768;BME280;76705;49.006;12.078;2024-03-25T02:09:45;96574.94;;;18.59;47.60
85768;BME280;76705;49.006;12.078;2024-03-25T02:12:24;96569.38;;;18.60;47.62
85768;BME280;76705;49.006;12.078;2024-03-25T02:15:04;96572.03;;;18.60;47.50
85768;BME280;76705;49.006;12.078;2024-03-25T02:17:44;96568.78;;;18.58;48.23
85768;BME280;76705;49.006;12.078;2024-03-25T02:20:22;96578.44;;;18.59;47.80
85768;BME280;76705;49.006;12.078;2024-03-25T02:22:59;96577.38;;;18.60;47.91
85768;BME280;76705;49.006;12.078;2024-03-25T02:25:38;96584.31;;;18.61;48.02
85768;BME280;76705;49.006;12.078;2024-03-25T02:28:18;96579.47;;;18.58;48.43
85768;BME280;76705;49.006;12.078;2024-03-25T02:30:57;96586.44;;;18.59;47.34
85768;BME280;76705;49.006;12.078;2024-03-25T02:33:35;96584.03;;;18.58;48.04
85768;BME280;76705;49.006;12.078;2024-03-25T02:36:13;96584.59;;;18.60;48.01
85768;BME280;76705;49.006;12.078;2024-03-25T02:38:51;96574.94;;;18.59;47.41
85768;BME280;76705;49.006;12.078;2024-03-25T02:41:30;96590.19;;;18.58;48.03
85768;BME280;76705;49.006;12.078;2024-03-25T02:44:10;96584.81;;;18.58;48.06
85768;BME280;76705;49.006;12.078;2024-03-25T02:46:48;96582.44;;;18.57;47.41
85768;BME280;76705;49.006;12.078;2024-03-25T02:49:27;96590.19;;;18.58;47.97
85768;BME280;76705;49.006;12.078;2024-03-25T02:52:06;96587.50;;;18.58;47.41
85768;BME280;76705;49.006;12.078;2024-03-25T02:54:43;96589.34;;;18.58;47.60
85768;BME280;76705;49.006;12.078;2024-03-25T02:57:22;96596.84;;;18.55;47.37
85768;BME280;76705;49.006;12.078;2024-03-25T03:00:01;96603.81;;;18.57;47.47
85768;BME280;76705;49.006;12.078;2024-03-25T03:02:40;96603.00;;;18.56;47.41
85768;BME280;76705;49.006;12.078;2024-03-25T03:05:18;96596.84;;;18.55;47.38
85768;BME280;76705;49.006;12.078;2024-03-25T03:07:56;96606.97;;;18.53;47.55
85768;BME280;76705;49.006;12.078;2024-03-25T03:10:34;96607.78;;;18.54;47.89
85768;BME280;76705;49.006;12.078;2024-03-25T03:13:12;96604.03;;;18.55;47.86
85768;BME280;76705;49.006;12.078;2024-03-25T03:15:51;96601.63;;;18.53;47.29
85768;BME280;76705;49.006;12.078;2024-03-25T03:18:29;96607.78;;;18.54;47.14
85768;BME280;76705;49.006;12.078;2024-03-25T03:21:08;96617.66;;;18.53;47.31
85768;BME280;76705;49.006;12.078;2024-03-25T03:23:46;96618.47;;;18.54;47.96
85768;BME280;76705;49.006;12.078;2024-03-25T03:26:24;96618.47;;;18.54;47.48
85768;BME280;76705;49.006;12.078;2024-03-25T03:29:04;96627.84;;;18.57;48.02
85768;BME280;76705;49.006;12.078;2024-03-25T03:31:44;96631.84;;;18.54;47.90
85768;BME280;76705;49.006;12.078;2024-03-25T03:34:21;96631.84;;;18.54;47.48
85768;BME280;76705;49.006;12.078;2024-03-25T03:36:59;96629.41;;;18.52;48.23
85768;BME280;76705;49.006;12.078;2024-03-25T03:39:37;96631.84;;;18.54;47.20
85768;BME280;76705;49.006;12.078;2024-03-25T03:42:15;96626.50;;;18.54;47.40
85768;BME280;76705;49.006;12.078;2024-03-25T03:44:53;96639.59;;;18.55;47.78
85768;BME280;76705;49.006;12.078;2024-03-25T03:47:32;96632.63;;;18.54;47.59
85768;BME280;76705;49.006;12.078;2024-03-25T03:50:10;96631.84;;;18.54;47.91
85768;BME280;76705;49.006;12.078;2024-03-25T03:52:48;96629.94;;;18.54;47.30
85768;BME280;76705;49.006;12.078;2024-03-25T03:55:26;96640.63;;;18.54;47.96
85768;BME280;76705;49.006;12.078;2024-03-25T03:58:04;96639.03;;;18.53;47.27
85768;BME280;76705;49.006;12.078;2024-03-25T04:00:43;96636.09;;;18.55;47.32
85768;BME280;76705;49.006;12.078;2024-03-25T04:03:22;96644.13;;;18.55;47.02
85768;BME280;76705;49.006;12.078;2024-03-25T04:06:07;96631.56;;;18.55;47.20
85768;BME280;76705;49.006;12.078;2024-03-25T04:08:45;96639.34;;;18.57;47.64
85768;BME280;76705;49.006;12.078;2024-03-25T04:11:23;96643.88;;;18.57;47.59
85768;BME280;76705;49.006;12.078;2024-03-25T04:14:02;96644.69;;;18.57;47.89
85768;BME280;76705;49.006;12.078;2024-03-25T04:16:40;96639.34;;;18.57;47.22
85768;BME280;76705;49.006;12.078;2024-03-25T04:19:23;96634.78;;;18.58;47.07
85768;BME280;76705;49.006;12.078;2024-03-25T04:22:01;96645.25;;;18.59;47.83
85768;BME280;76705;49.006;12.078;2024-03-25T04:24:42;96645.78;;;18.61;47.56
85768;BME280;76705;49.006;12.078;2024-03-25T04:27:20;96651.13;;;18.61;47.69
85768;BME280;76705;49.006;12.078;2024-03-25T04:30:01;96649.28;;;18.62;47.53
85768;BME280;76705;49.006;12.078;2024-03-25T04:32:39;96652.75;;;18.62;46.94
85768;BME280;76705;49.006;12.078;2024-03-25T04:35:19;96659.97;;;18.62;47.71
85768;BME280;76705;49.006;12.078;2024-03-25T04:37:57;96660.78;;;18.62;47.13
85768;BME280;76705;49.006;12.078;2024-03-25T04:40:35;96652.47;;;18.64;47.51
85768;BME280;76705;49.006;12.078;2024-03-25T04:43:14;96658.66;;;18.64;47.48
85768;BME280;76705;49.006;12.078;2024-03-25T04:45:52;96657.03;;;18.63;47.27
85768;BME280;76705;49.006;12.078;2024-03-25T04:48:30;96654.09;;;18.65;47.59
85768;BME280;76705;49.006;12.078;2024-03-25T04:51:09;96654.09;;;18.65;46.98
85768;BME280;76705;49.006;12.078;2024-03-25T04:53:47;96666.16;;;18.67;47.30
85768;BME280;76705;49.006;12.078;2024-03-25T04:56:25;96670.69;;;18.67;47.07
85768;BME280;76705;49.006;12.078;2024-03-25T04:59:04;96669.91;;;18.66;47.45
85768;BME280;76705;49.006;12.078;2024-03-25T05:01:41;96676.59;;;18.69;46.91
85768;BME280;76705;49.006;12.078;2024-03-25T05:04:19;96671.50;;;18.67;46.95
85768;BME280;76705;49.006;12.078;2024-03-25T05:06:59;96675.00;;;18.68;47.29
85768;BME280;76705;49.006;12.078;2024-03-25T05:09:37;96682.78;;;18.69;47.37
85768;BME280;76705;49.006;12.078;2024-03-25T05:12:15;96681.16;;;18.68;47.26
85768;BME280;76705;49.006;12.078;2024-03-25T05:14:53;96679.00;;;18.70;46.83
85768;BME280;76705;49.006;12.078;2024-03-25T05:17:31;96685.44;;;18.69;46.90
85768;BME280;76705;49.006;12.078;2024-03-25T05:20:10;96689.72;;;18.70;47.44
85768;BME280;76705;49.006;12.078;2024-03-25T05:22:49;96701.22;;;18.71;47.06
85768;BME280;76705;49.006;12.078;2024-03-25T05:25:28;96703.06;;;18.70;46.78
85768;BME280;76705;49.006;12.078;2024-03-25T05:28:06;96699.34;;;18.71;47.14
85768;BME280;76705;49.006;12.078;2024-03-25T05:30:45;96711.66;;;18.72;47.40
85768;BME280;76705;49.006;12.078;2024-03-25T05:33:23;96704.44;;;18.73;46.96
85768;BME280;76705;49.006;12.078;2024-03-25T05:36:02;96708.72;;;18.74;47.49
85768;BME280;76705;49.006;12.078;2024-03-25T05:38:41;96712.22;;;18.74;47.14
85768;BME280;76705;49.006;12.078;2024-03-25T05:41:20;96706.06;;;18.74;47.18
85768;BME280;76705;49.006;12.078;2024-03-25T05:43:58;96708.50;;;18.75;47.54
85768;BME280;76705;49.006;12.078;2024-03-25T05:46:36;96707.41;;;18.76;47.41
85768;BME280;76705;49.006;12.078;2024-03-25T05:49:14;96719.72;;;18.77;46.69
85768;BME280;76705;49.006;12.078;2024-03-25T05:51:52;96710.66;;;18.78;47.19
85768;BME280;76705;49.006;12.078;2024-03-25T05:54:31;96716.59;;;18.85;46.94
85768;BME280;76705;49.006;12.078;2024-03-25T05:57:09;96715.09;;;18.94;46.72
85768;BME280;76705;49.006;12.078;2024-03-25T05:59:47;96717.53;;;18.96;47.73
85768;BME280;76705;49.006;12.078;2024-03-25T06:02:26;96713.06;;;19.06;47.50
85768;BME280;76705;49.006;12.078;2024-03-25T06:05:04;96725.19;;;19.14;47.86
85768;BME280;76705;49.006;12.078;2024-03-25T06:07:43;96736.69;;;19.15;46.92
85768;BME280;76705;49.006;12.078;2024-03-25T06:10:22;96735.38;;;19.17;47.63
85768;BME280;76705;49.006;12.078;2024-03-25T06:13:01;96741.03;;;19.21;46.90
85768;BME280;76705;49.006;12.078;2024-03-25T06:15:39;96736.72;;;19.20;48.00
85768;BME280;76705;49.006;12.078;2024-03-25T06:18:17;96744.50;;;19.21;47.85
85768;BME280;76705;49.006;12.078;2024-03-25T06:20:55;96742.38;;;19.23;47.66
85768;BME280;76705;49.006;12.078;2024-03-25T06:23:33;96743.72;;;19.21;48.25
85768;BME280;76705;49.006;12.078;2024-03-25T06:26:12;96751.47;;;19.22;47.65
85768;BME280;76705;49.006;12.078;2024-03-25T06:28:51;96750.41;;;19.23;47.82
85768;BME280;76705;49.006;12.078;2024-03-25T06:31:28;96744.56;;;19.26;47.88
85768;BME280;76705;49.006;12.078;2024-03-25T06:34:25;96751.00;;;19.30;48.07
85768;BME280;76705;49.006;12.078;2024-03-25T06:37:03;96760.13;;;19.34;47.07
85768;BME280;76705;49.006;12.078;2024-03-25T06:39:42;96753.75;;;19.35;47.28
85768;BME280;76705;49.006;12.078;2024-03-25T06:42:21;96759.16;;;19.40;47.36
85768;BME280;76705;49.006;12.078;2024-03-25T06:45:00;96755.66;;;19.40;46.98
85768;BME280;76705;49.006;12.078;2024-03-25T06:47:37;96763.47;;;19.41;47.49
85768;BME280;76705;49.006;12.078;2024-03-25T06:50:15;96759.72;;;19.42;47.84
85768;BME280;76705;49.006;12.078;2024-03-25T06:52:54;96763.19;;;19.43;47.77
85768;BME280;76705;49.006;12.078;2024-03-25T06:55:32;96762.41;;;19.42;47.30
85768;BME280;76705;49.006;12.078;2024-03-25T06:58:11;96762.41;;;19.42;47.78
85768;BME280;76705;49.006;12.078;2024-03-25T07:00:50;96754.38;;;19.42;47.35
85768;BME280;76705;49.006;12.078;2024-03-25T07:03:27;96761.31;;;19.43;47.48
85768;BME280;76705;49.006;12.078;2024-03-25T07:06:06;96759.72;;;19.42;47.42
85768;BME280;76705;49.006;12.078;2024-03-25T07:08:44;96754.38;;;19.42;46.77
85768;BME280;76705;49.006;12.078;2024-03-25T07:11:22;96753.88;;;19.45;47.19
85768;BME280;76705;49.006;12.078;2024-03-25T07:14:02;96766.50;;;19.55;46.64
85768;BME280;76705;49.006;12.078;2024-03-25T07:16:41;96763.78;;;19.50;47.33
85768;BME280;76705;49.006;12.078;2024-03-25T07:19:19;96762.97;;;19.49;46.62
85768;BME280;76705;49.006;12.078;2024-03-25T07:21:57;96766.16;;;19.46;46.77
85768;BME280;76705;49.006;12.078;2024-03-25T07:24:35;96763.50;;;19.46;47.91
85768;BME280;76705;49.006;12.078;2024-03-25T07:27:13;96769.94;;;19.45;47.80
85768;BME280;76705;49.006;12.078;2024-03-25T07:29:53;96768.03;;;19.46;47.19
85768;BME280;76705;49.006;12.078;2024-03-25T07:32:31;96769.94;;;19.45;47.21
85768;BME280;76705;49.006;12.078;2024-03-25T07:35:09;96768.53;;;19.43;47.43
85768;BME280;76705;49.006;12.078;2024-03-25T07:37:47;96770.09;;;19.39;47.39
85768;BME280;76705;49.006;12.078;2024-03-25T07:40:29;96767.66;;;19.37;47.35
85768;BME280;76705;49.006;12.078;2024-03-25T07:43:07;96768.47;;;19.38;47.44
85768;BME280;76705;49.006;12.078;2024-03-25T07:45:47;96767.94;;;19.36;46.92
85768;BME280;76705;49.006;12.078;2024-03-25T07:48:26;96766.31;;;19.35;47.17
85768;BME280;76705;49.006;12.078;2024-03-25T07:51:04;96774.88;;;19.37;46.91
85768;BME280;76705;49.006;12.078;2024-03-25T07:53:42;96772.78;;;19.39;47.26
85768;BME280;76705;49.006;12.078;2024-03-25T07:56:19;96766.94;;;19.42;47.56
85768;BME280;76705;49.006;12.078;2024-03-25T07:58:57;96772.44;;;19.57;46.04
85768;BME280;76705;49.006;12.078;2024-03-25T08:01:38;96767.31;;;19.55;46.97
85768;BME280;76705;49.006;12.078;2024-03-25T08:04:16;96769.44;;;19.53;46.89
85768;BME280;76705;49.006;12.078;2024-03-25T08:06:54;96765.47;;;19.61;47.21
85768;BME280;76705;49.006;12.078;2024-03-25T08:09:32;96767.31;;;19.55;47.09
85768;BME280;76705;49.006;12.078;2024-03-25T08:12:11;96770.44;;;19.79;46.74
85768;BME280;76705;49.006;12.078;2024-03-25T08:14:49;96771.16;;;20.01;46.19
85768;BME280;76705;49.006;12.078;2024-03-25T08:17:28;96772.34;;;20.21;46.05
85768;BME280;76705;49.006;12.078;2024-03-25T08:20:08;96776.91;;;20.20;46.40
85768;BME280;76705;49.006;12.078;2024-03-25T08:22:48;96775.47;;;20.07;45.97
85768;BME280;76705;49.006;12.078;2024-03-25T08:25:26;96771.38;;;19.95;46.85
85768;BME280;76705;49.006;12.078;2024-03-25T08:28:04;96778.84;;;19.88;47.11
85768;BME280;76705;49.006;12.078;2024-03-25T08:30:42;96782.25;;;19.83;47.09
85768;BME280;76705;49.006;12.078;2024-03-25T08:33:21;96782.78;;;19.80;47.05
85768;BME280;76705;49.006;12.078;2024-03-25T08:36:00;96782.75;;;19.75;47.37
85768;BME280;76705;49.006;12.078;2024-03-25T08:38:38;96792.88;;;19.73;47.34
85768;BME280;76705;49.006;12.078;2024-03-25T08:41:16;96789.13;;;19.69;47.05
85768;BME280;76705;49.006;12.078;2024-03-25T08:43:54;96788.81;;;19.66;47.68
85768;BME280;76705;49.006;12.078;2024-03-25T08:46:32;96796.03;;;19.65;47.78
85768;BME280;76705;49.006;12.078;2024-03-25T08:49:12;96790.16;;;19.63;47.67
85768;BME280;76705;49.006;12.078;2024-03-25T08:51:49;96792.81;;;19.63;47.85
85768;BME280;76705;49.006;12.078;2024-03-25T08:54:27;96783.97;;;19.62;47.63
85768;BME280;76705;49.006;12.078;2024-03-25T08:57:05;96789.56;;;19.61;47.21
85768;BME280;76705;49.006;12.078;2024-03-25T08:59:43;96791.47;;;19.60;47.13
85768;BME280;76705;49.006;12.078;2024-03-25T09:02:21;96779.13;;;19.59;47.15
85768;BME280;76705;49.006;12.078;2024-03-25T09:05:00;96787.97;;;19.60;47.03
85768;BME280;76705;49.006;12.078;2024-03-25T09:07:39;96789.53;;;19.56;47.80
85768;BME280;76705;49.006;12.078;2024-03-25T09:10:17;96796.44;;;19.52;45.86
85768;BME280;76705;49.006;12.078;2024-03-25T09:13:14;96793.25;;;19.55;46.18
85768;BME280;76705;49.006;12.078;2024-03-25T09:15:52;96790.66;;;19.60;46.17
85768;BME280;76705;49.006;12.078;2024-03-25T09:18:32;96791.19;;;19.62;46.19
85768;BME280;76705;49.006;12.078;2024-03-25T09:21:11;96790.97;;;19.63;46.95
85768;BME280;76705;49.006;12.078;2024-03-25T09:23:50;96791.50;;;19.66;46.47
85768;BME280;76705;49.006;12.078;2024-03-25T09:26:28;96794.03;;;19.82;46.64
85768;BME280;76705;49.006;12.078;2024-03-25T09:29:06;96784.72;;;19.90;46.97
85768;BME280;76705;49.006;12.078;2024-03-25T09:31:44;96793.56;;;19.90;46.56
85768;BME280;76705;49.006;12.078;2024-03-25T09:34:22;96786.06;;;19.87;46.63
85768;BME280;76705;49.006;12.078;2024-03-25T09:37:01;96791.13;;;19.84;46.56
85768;BME280;76705;49.006;12.078;2024-03-25T09:39:40;96793.25;;;19.82;47.28
85768;BME280;76705;49.006;12.078;2024-03-25T09:42:25;96786.28;;;19.81;47.59
85768;BME280;76705;49.006;12.078;2024-03-25T09:45:06;96790.00;;;19.80;47.31
85768;BME280;76705;49.006;12.078;2024-03-25T09:47:46;96788.66;;;19.77;46.84
85768;BME280;76705;49.006;12.078;2024-03-25T09:50:24;96785.47;;;19.80;46.47
85768;BME280;76705;49.006;12.078;2024-03-25T09:53:04;96786.81;;;19.83;47.09
85768;BME280;76705;49.006;12.078;2024-03-25T09:55:42;96777.22;;;19.87;46.28
85768;BME280;76705;49.006;12.078;2024-03-25T09:58:21;96773.47;;;19.88;46.09
85768;BME280;76705;49.006;12.078;2024-03-25T10:00:59;96780.41;;;19.84;46.85
85768;BME280;76705;49.006;12.078;2024-03-25T10:03:37;96768.06;;;19.83;46.74
85768;BME280;76705;49.006;12.078;2024-03-25T10:06:14;96775.03;;;19.84;46.57
85768;BME280;76705;49.006;12.078;2024-03-25T10:08:54;96762.56;;;19.99;46.72
85768;BME280;76705;49.006;12.078;2024-03-25T10:11:35;96764.44;;;19.99;46.11
85768;BME280;76705;49.006;12.078;2024-03-25T10:14:13;96763.94;;;20.02;46.54
85768;BME280;76705;49.006;12.078;2024-03-25T10:16:52;96763.94;;;20.07;46.63
85768;BME280;76705;49.006;12.078;2024-03-25T10:19:30;96760.56;;;20.22;46.04
85768;BME280;76705;49.006;12.078;2024-03-25T10:22:08;96750.75;;;20.37;45.61
85768;BME280;76705;49.006;12.078;2024-03-25T10:24:48;96750.00;;;20.52;45.24
85768;BME280;76705;49.006;12.078;2024-03-25T10:27:26;96746.28;;;20.53;45.31
85768;BME280;76705;49.006;12.078;2024-03-25T10:30:05;96741.22;;;20.61;45.43
85768;BME280;76705;49.006;12.078;2024-03-25T10:32:45;96733.75;;;20.68;44.82
85768;BME280;76705;49.006;12.078;2024-03-25T10:35:25;96741.50;;;20.60;45.34
85768;BME280;76705;49.006;12.078;2024-03-25T10:38:05;96740.16;;;20.62;45.60
85768;BME280;76705;49.006;12.078;2024-03-25T10:40:45;96739.38;;;20.67;45.08
85768;BME280;76705;49.006;12.078;2024-03-25T10:43:25;96731.34;;;20.72;45.13
85768;BME280;76705;49.006;12.078;2024-03-25T10:46:06;96733.75;;;20.73;44.80
85768;BME280;76705;49.006;12.078;2024-03-25T10:48:52;96724.94;;;20.73;43.81
85768;BME280;76705;49.006;12.078;2024-03-25T10:51:30;96718.75;;;20.83;43.56
85768;BME280;76705;49.006;12.078;2024-03-25T10:54:09;96717.16;;;20.87;43.52
85768;BME280;76705;49.006;12.078;2024-03-25T10:56:49;96710.22;;;21.01;43.54
85768;BME280;76705;49.006;12.078;2024-03-25T10:59:30;96716.41;;;20.96;42.75
85768;BME280;76705;49.006;12.078;2024-03-25T11:02:09;96706.97;;;20.79;42.82
85768;BME280;76705;49.006;12.078;2024-03-25T11:04:47;96703.44;;;20.68;43.19
85768;BME280;76705;49.006;12.078;2024-03-25T11:07:30;96713.34;;;20.62;43.45
85768;BME280;76705;49.006;12.078;2024-03-25T11:10:10;96714.41;;;20.56;43.55
85768;BME280;76705;49.006;12.078;2024-03-25T11:12:50;96711.72;;;20.51;43.53
85768;BME280;76705;49.006;12.078;2024-03-25T11:15:35;96705.25;;;20.47;44.13
85768;BME280;76705;49.006;12.078;2024-03-25T11:18:17;96706.53;;;20.40;44.00
85768;BME280;76705;49.006;12.078;2024-03-25T11:21:02;96701.97;;;20.35;44.67
85768;BME280;76705;49.006;12.078;2024-03-25T11:23:41;96697.97;;;20.33;44.85
85768;BME280;76705;49.006;12.078;2024-03-25T11:26:21;96701.72;;;20.37;44.59
85768;BME280;76705;49.006;12.078;2024-03-25T11:29:01;96697.13;;;20.27;44.75
85768;BME280;76705;49.006;12.078;2024-03-25T11:31:41;96697.63;;;20.24;44.82
85768;BME280;76705;49.006;12.078;2024-03-25T11:34:19;96687.38;;;20.16;44.66
85768;BME280;76705;49.006;12.078;2024-03-25T11:36:57;96679.63;;;20.14;44.84
85768;BME280;76705;49.006;12.078;2024-03-25T11:39:36;96675.84;;;20.15;45.15
85768;BME280;76705;49.006;12.078;2024-03-25T11:42:15;96674.00;;;20.16;45.47
85768;BME280;76705;49.006;12.078;2024-03-25T11:44:54;96672.66;;;20.13;45.71
85768;BME280;76705;49.006;12.078;2024-03-25T11:47:33;96668.63;;;20.11;45.60
85768;BME280;76705;49.006;12.078;2024-03-25T11:50:14;96671.00;;;20.07;45.82
85768;BME280;76705;49.006;12.078;2024-03-25T11:52:53;96667.78;;;20.05;45.61
85768;BME280;76705;49.006;12.078;2024-03-25T11:55:31;96661.88;;;20.03;45.87
85768;BME280;76705;49.006;12.078;2024-03-25T11:58:10;96656.53;;;20.03;46.06
85768;BME280;76705;49.006;12.078;2024-03-25T12:00:50;96654.94;;;20.02;46.46
85768;BME280;76705;49.006;12.078;2024-03-25T12:03:33;96657.84;;;20.01;46.48
85768;BME280;76705;49.006;12.078;2024-03-25T12:06:11;96655.75;;;20.03;46.67
85768;BME280;76705;49.006;12.078;2024-03-25T12:08:49;96653.59;;;20.05;45.81
85768;BME280;76705;49.006;12.078;2024-03-25T12:11:46;96642.59;;;20.01;46.75
85768;BME280;76705;49.006;12.078;2024-03-25T12:14:26;96633.22;;;19.99;46.56
85768;BME280;76705;49.006;12.078;2024-03-25T12:17:09;96638.56;;;19.99;46.59
85768;BME280;76705;49.006;12.078;2024-03-25T12:19:58;96636.94;;;19.98;46.52
85768;BME280;76705;49.006;12.078;2024-03-25T12:22:38;96630.25;;;20.00;46.31
85768;BME280;76705;49.006;12.078;2024-03-25T12:25:19;96632.16;;;20.05;46.34
85768;BME280;76705;49.006;12.078;2024-03-25T12:27:57;96625.75;;;20.06;46.37
85768;BME280;76705;49.006;12.078;2024-03-25T12:30:48;96622.25;;;20.05;46.59
85768;BME280;76705;49.006;12.078;2024-03-25T12:33:29;96623.06;;;20.06;46.55
85768;BME280;76705;49.006;12.078;2024-03-25T12:36:07;96624.13;;;20.05;46.29
85768;BME280;76705;49.006;12.078;2024-03-25T12:38:54;96611.25;;;20.02;46.69
85768;BME280;76705;49.006;12.078;2024-03-25T12:41:32;96607.78;;;20.01;46.54
85768;BME280;76705;49.006;12.078;2024-03-25T12:44:12;96600.53;;;19.97;46.59
85768;BME280;76705;49.006;12.078;2024-03-25T12:46:50;96606.72;;;20.02;46.75
85768;BME280;76705;49.006;12.078;2024-03-25T12:49:29;96601.06;;;19.99;46.67
85768;BME280;76705;49.006;12.078;2024-03-25T12:52:08;96597.81;;;19.92;46.16
85768;BME280;76705;49.006;12.078;2024-03-25T12:54:46;96594.34;;;19.91;46.62
85768;BME280;76705;49.006;12.078;2024-03-25T12:57:24;96584.94;;;19.89;46.61
85768;BME280;76705;49.006;12.078;2024-03-25T13:00:02;96588.16;;;19.86;46.34
85768;BME280;76705;49.006;12.078;2024-03-25T13:02:43;96578.53;;;19.85;46.34
85768;BME280;76705;49.006;12.078;2024-03-25T13:05:23;96569.13;;;19.82;46.26
85768;BME280;76705;49.006;12.078;2024-03-25T13:08:01;96584.66;;;19.80;46.29
85768;BME280;76705;49.006;12.078;2024-03-25T13:10:40;96581.16;;;19.80;46.52
85768;BME280;76705;49.006;12.078;2024-03-25T13:13:18;96583.31;;;19.78;46.92
85768;BME280;76705;49.006;12.078;2024-03-25T13:15:56;96570.97;;;19.77;46.41
85768;BME280;76705;49.006;12.078;2024-03-25T13:18:34;96564.56;;;19.78;46.47
85768;BME280;76705;49.006;12.078;2024-03-25T13:21:13;96563.50;;;19.79;46.68
85768;BME280;76705;49.006;12.078;2024-03-25T13:23:51;96550.38;;;19.77;46.96
85768;BME280;76705;49.006;12.078;2024-03-25T13:26:29;96556.78;;;19.76;46.95
85768;BME280;76705;49.006;12.078;2024-03-25T13:29:07;96555.44;;;19.74;46.60
85768;BME280;76705;49.006;12.078;2024-03-25T13:31:45;96558.13;;;19.74;46.70
85768;BME280;76705;49.006;12.078;2024-03-25T13:34:23;96557.31;;;19.73;46.79
85768;BME280;76705;49.006;12.078;2024-03-25T13:37:03;96557.06;;;19.75;47.08
85768;BME280;76705;49.006;12.078;2024-03-25T13:39:41;96547.97;;;19.76;46.92
85768;BME280;76705;49.006;12.078;2024-03-25T13:42:19;96543.66;;;19.75;46.47
85768;BME280;76705;49.006;12.078;2024-03-25T13:44:58;96542.88;;;19.74;47.22
85768;BME280;76705;49.006;12.078;2024-03-25T13:47:36;96530.00;;;19.71;47.07
85768;BME280;76705;49.006;12.078;2024-03-25T13:50:14;96532.38;;;19.68;47.34